Time;durP1;ratioP1;P1;durP2;ratioP2;P2;SDS_P1;SDS_P2;PMS_P1;PMS_P2;Temp;Humidity;BMP_temperature;BMP_pressure;BME280_temperature;BME280_humidity;BME280_pressure;Samples;Min_cycle;Max_cycle;Signal;HPM_P1;HPM_P2
2021/05/12 06:59:41;;;;;;;6.68;2.13;;;;;;;;;;6980254;27;20587;-79
2021/05/12 07:03:01;;;;;;;2.25;2.05;;;;;;;;;;6963545;28;20041;-79
2021/05/12 07:06:22;;;;;;;5.88;1.70;;;;;;;;;;6961242;28;20029;-78
2021/05/12 07:09:42;;;;;;;7.72;1.70;;;;;;;;;;6950581;28;20040;-78
2021/05/12 07:13:04;;;;;;;5.60;1.92;;;;;;;;;;6965345;28;20116;-79
2021/05/12 07:16:24;;;;;;;5.05;2.13;;;;;;;;;;6957663;28;20036;-78
2021/05/12 07:19:44;;;;;;;5.65;2.45;;;;;;;;;;6955022;28;20029;-78
2021/05/12 07:23:09;;;;;;;6.03;2.78;;;;;;;;;;6957233;28;20085;-76
2021/05/12 07:26:30;;;;;;;6.68;2.80;;;;;;;;;;6991547;28;20030;-78
2021/05/12 07:29:50;;;;;;;3.50;2.08;;;;;;;;;;6953312;28;20037;-77
2021/05/12 07:33:11;;;;;;;4.93;2.70;;;;;;;;;;6964923;28;20029;-78
2021/05/12 07:36:31;;;;;;;4.22;2.65;;;;;;;;;;6973949;28;20492;-77
2021/05/12 07:39:52;;;;;;;5.85;2.63;;;;;;;;;;6968270;28;20021;-78
2021/05/12 07:43:13;;;;;;;5.47;3.65;;;;;;;;;;6963964;28;20108;-77
2021/05/12 07:46:33;;;;;;;6.03;3.00;;;;;;;;;;6965520;28;20028;-82
2021/05/12 07:49:54;;;;;;;9.73;3.10;;;;;;;;;;6965916;28;20068;-82
2021/05/12 07:53:14;;;;;;;2.95;2.67;;;;;;;;;;6961476;28;20112;-80
2021/05/12 07:56:35;;;;;;;3.30;3.00;;;;;;;;;;6951726;28;20373;-80
2021/05/12 07:59:55;;;;;;;5.50;2.80;;;;;;;;;;6958537;28;20076;-82
2021/05/12 08:03:16;;;;;;;3.85;2.88;;;;;;;;;;6950451;28;20033;-82
2021/05/12 08:06:36;;;;;;;2.80;2.60;;;;;;;;;;6958965;28;20538;-81
2021/05/12 08:09:56;;;;;;;3.35;2.58;;;;;;;;;;6931744;28;20029;-81
2021/05/12 08:13:17;;;;;;;10.20;2.90;;;;;;;;;;6928271;28;20034;-82
2021/05/12 08:16:37;;;;;;;3.53;2.40;;;;;;;;;;6945829;28;20669;-81
2021/05/12 08:19:59;;;;;;;3.85;2.80;;;;;;;;;;6953978;28;20030;-85
2021/05/12 08:23:22;;;;;;;12.10;2.80;;;;;;;;;;6939931;28;20030;-82
2021/05/12 08:26:42;;;;;;;3.95;2.60;;;;;;;;;;6936985;28;20029;-84
2021/05/12 08:30:04;;;;;;;4.20;2.33;;;;;;;;;;6938100;28;20167;-81
2021/05/12 08:33:25;;;;;;;6.68;2.67;;;;;;;;;;6948733;28;20508;-84
2021/05/12 08:36:46;;;;;;;5.22;2.33;;;;;;;;;;6941303;28;20026;-81
2021/05/12 08:40:07;;;;;;;3.20;2.28;;;;;;;;;;6939232;28;20136;-82
2021/05/12 08:43:28;;;;;;;2.72;2.05;;;;;;;;;;6958262;28;20040;-84
2021/05/12 08:46:49;;;;;;;3.28;1.65;;;;;;;;;;6952431;28;20034;-80
2021/05/12 08:50:11;;;;;;;2.33;1.50;;;;;;;;;;6947964;28;20030;-79
2021/05/12 08:53:31;;;;;;;4.50;1.73;;;;;;;;;;6947808;28;20040;-79
2021/05/12 08:56:52;;;;;;;1.48;1.30;;;;;;;;;;6949090;28;20054;-78
2021/05/12 09:00:13;;;;;;;4.32;1.40;;;;;;;;;;6937222;28;20103;-79
2021/05/12 09:03:33;;;;;;;6.82;1.55;;;;;;;;;;6958610;28;20068;-78
2021/05/12 09:06:55;;;;;;;4.45;1.42;;;;;;;;;;6946178;28;20529;-79
2021/05/12 09:10:15;;;;;;;6.85;1.50;;;;;;;;;;6924615;28;20065;-79
2021/05/12 09:13:38;;;;;;;5.97;1.25;;;;;;;;;;6941230;28;20026;-79
2021/05/12 09:16:59;;;;;;;2.67;1.20;;;;;;;;;;6943732;28;20022;-78
2021/05/12 09:20:19;;;;;;;5.13;1.10;;;;;;;;;;6937911;28;20103;-80
2021/05/12 09:23:41;;;;;;;12.13;1.40;;;;;;;;;;6923330;28;20497;-80
2021/05/12 09:27:09;;;;;;;1.58;1.08;;;;;;;;;;6944370;28;20112;-80
2021/05/12 09:30:31;;;;;;;4.75;1.00;;;;;;;;;;6937559;28;20116;-80
2021/05/12 09:33:52;;;;;;;3.60;1.23;;;;;;;;;;6947622;28;20367;-79
2021/05/12 09:37:33;;;;;;;3.10;1.00;;;;;;;;;;6933209;28;20438;-80
2021/05/12 09:41:09;;;;;;;1.02;0.98;;;;;;;;;;6928675;28;20406;-85
2021/05/12 09:44:30;;;;;;;1.40;0.95;;;;;;;;;;6939659;28;20030;-79
2021/05/12 09:47:55;;;;;;;6.95;1.35;;;;;;;;;;6918943;28;20121;-78
2021/05/12 09:51:19;;;;;;;0.98;0.80;;;;;;;;;;6934647;28;20047;-80
2021/05/12 09:54:40;;;;;;;3.17;1.20;;;;;;;;;;6948558;28;20025;-81
2021/05/12 09:58:02;;;;;;;3.55;1.20;;;;;;;;;;6941339;28;20137;-81
2021/05/12 10:01:40;;;;;;;2.30;0.90;;;;;;;;;;6934937;28;20029;-82
2021/05/12 10:05:03;;;;;;;1.35;0.85;;;;;;;;;;6943762;28;20029;-89
2021/05/12 10:08:31;;;;;;;3.22;1.50;;;;;;;;;;6945619;28;20037;-80
2021/05/12 10:12:10;;;;;;;3.55;1.15;;;;;;;;;;6944018;28;20060;-81
2021/05/12 10:15:31;;;;;;;2.40;0.90;;;;;;;;;;6933040;28;20351;-85
2021/05/12 10:18:51;;;;;;;1.98;0.82;;;;;;;;;;6951834;28;20537;-83
2021/05/12 10:22:12;;;;;;;2.25;1.15;;;;;;;;;;6940950;28;20057;-82
2021/05/12 10:25:33;;;;;;;4.35;1.00;;;;;;;;;;6947506;28;20021;-80
2021/05/12 10:28:54;;;;;;;3.15;1.10;;;;;;;;;;6927017;28;20026;-81
2021/05/12 10:32:34;;;;;;;7.00;1.20;;;;;;;;;;6946636;28;20097;-81
2021/05/12 10:36:08;;;;;;;2.40;0.82;;;;;;;;;;6941167;28;20044;-81
2021/05/12 10:39:28;;;;;;;4.13;0.80;;;;;;;;;;6950360;28;20057;-82
2021/05/12 10:46:29;;;;;;;;;;;;;;;;;;6931417;28;20065;-85
2021/05/12 10:49:51;;;;;;;0.88;0.80;;;;;;;;;;6938969;28;19913;-81
2021/05/12 10:53:22;;;;;;;2.15;0.90;;;;;;;;;;6938742;28;20076;-80
2021/05/12 10:56:43;;;;;;;2.92;0.90;;;;;;;;;;6941342;28;20045;-81
2021/05/12 11:00:05;;;;;;;7.78;0.82;;;;;;;;;;6953414;28;20411;-80
2021/05/12 11:03:25;;;;;;;0.95;0.80;;;;;;;;;;6933444;28;20100;-80
2021/05/12 11:06:49;;;;;;;1.65;0.85;;;;;;;;;;6939257;28;20113;-81
2021/05/12 11:10:09;;;;;;;4.43;0.77;;;;;;;;;;6941907;28;20526;-82
2021/05/12 11:13:32;;;;;;;1.73;0.90;;;;;;;;;;6943073;28;20030;-79
2021/05/12 11:17:22;;;;;;;7.00;1.08;;;;;;;;;;6947434;28;20497;-80
2021/05/12 11:20:42;;;;;;;2.30;1.10;;;;;;;;;;6933020;28;20040;-81
2021/05/12 11:24:06;;;;;;;2.70;1.13;;;;;;;;;;6934930;28;20064;-80
2021/05/12 11:34:36;;;;;;;;;;;;;;;;;;6941728;28;20479;-80
2021/05/12 11:37:57;;;;;;;5.70;1.25;;;;;;;;;;6955919;28;19928;-82
2021/05/12 11:41:24;;;;;;;5.90;1.17;;;;;;;;;;6930598;28;20052;-80
2021/05/12 11:44:45;;;;;;;5.18;1.20;;;;;;;;;;6950748;28;20072;-80
2021/05/12 11:48:07;;;;;;;5.72;1.30;;;;;;;;;;6933709;28;20030;-80
2021/05/12 11:51:32;;;;;;;6.85;1.20;;;;;;;;;;6933724;28;20034;-80
2021/05/12 11:54:52;;;;;;;3.40;1.30;;;;;;;;;;6935220;28;20487;-81
2021/05/12 11:58:22;;;;;;;5.13;0.90;;;;;;;;;;6957599;28;20041;-81
2021/05/12 12:01:48;;;;;;;3.63;1.00;;;;;;;;;;6932875;28;20068;-80
2021/05/12 12:05:09;;;;;;;4.95;1.23;;;;;;;;;;6940589;28;20427;-81
2021/05/12 12:08:30;;;;;;;2.33;1.00;;;;;;;;;;6954351;28;20037;-80
2021/05/12 12:11:50;;;;;;;1.48;0.80;;;;;;;;;;6938341;28;20076;-79
2021/05/12 12:15:12;;;;;;;1.90;0.98;;;;;;;;;;6934231;28;20048;-83
2021/05/12 12:18:35;;;;;;;2.55;1.17;;;;;;;;;;6934528;28;20371;-84
2021/05/12 12:21:56;;;;;;;9.68;1.38;;;;;;;;;;6942248;28;20029;-83
2021/05/12 12:25:18;;;;;;;2.03;0.93;;;;;;;;;;6936608;28;20064;-85
2021/05/12 12:32:07;;;;;;;4.38;1.08;;;;;;;;;;6817211;28;21835;-81
2021/05/12 12:35:27;;;;;;;4.25;0.93;;;;;;;;;;6822155;29;20106;-80
2021/05/12 12:38:51;;;;;;;2.90;1.30;;;;;;;;;;6828365;29;20035;-81
2021/05/12 12:42:13;;;;;;;3.15;1.10;;;;;;;;;;6824166;28;20051;-81
2021/05/12 12:45:35;;;;;;;2.13;0.90;;;;;;;;;;6817069;29;20032;-81
2021/05/12 12:48:55;;;;;;;2.50;1.13;;;;;;;;;;6835249;29;20038;-79
2021/05/12 12:52:20;;;;;;;4.88;0.90;;;;;;;;;;6851216;28;20058;-78
2021/05/12 12:55:40;;;;;;;2.20;1.05;;;;;;;;;;6841248;28;20134;-79
2021/05/12 12:59:03;;;;;;;2.95;0.80;;;;;;;;;;6833622;28;20394;-78
2021/05/12 13:02:23;;;;;;;4.28;1.15;;;;;;;;;;6823613;29;20042;-78
2021/05/12 13:05:51;;;;;;;2.33;0.90;;;;;;;;;;6836051;29;20059;-78
2021/05/12 13:09:28;;;;;;;6.43;0.95;;;;;;;;;;6831674;28;20102;-78
2021/05/12 13:12:48;;;;;;;1.45;0.63;;;;;;;;;;6815036;29;20054;-82
2021/05/12 13:16:15;;;;;;;1.00;0.88;;;;;;;;;;6830243;29;20374;-81
2021/05/12 13:19:39;;;;;;;3.10;1.20;;;;;;;;;;6826740;29;20039;-81
2021/05/12 13:23:06;;;;;;;4.93;1.00;;;;;;;;;;6835631;29;20039;-82
2021/05/12 13:26:35;;;;;;;4.63;1.35;;;;;;;;;;6837799;28;20117;-83
2021/05/12 13:29:55;;;;;;;;;;;;;;;;;;6838953;28;20073;-79
2021/05/12 13:33:19;;;;;;;2.92;1.00;;;;;;;;;;6835283;28;19918;-80
2021/05/12 13:36:40;;;;;;;1.02;0.90;;;;;;;;;;6832683;28;20063;-80
2021/05/12 13:40:01;;;;;;;10.55;1.08;;;;;;;;;;6836945;28;20058;-82
2021/05/12 13:43:21;;;;;;;2.70;0.98;;;;;;;;;;6837012;28;20067;-82
2021/05/12 13:46:45;;;;;;;1.48;0.80;;;;;;;;;;6823831;28;20082;-82
2021/05/12 13:50:07;;;;;;;3.13;1.00;;;;;;;;;;6827341;28;20039;-84
2021/05/12 13:53:39;;;;;;;3.35;0.90;;;;;;;;;;6834466;29;20027;-81
2021/05/12 13:57:12;;;;;;;2.25;0.90;;;;;;;;;;6841638;28;20035;-84
2021/05/12 14:03:58;;;;;;;3.80;0.90;;;;;;;;;;6837134;28;20062;-84
2021/05/12 14:07:18;;;;;;;0.70;0.70;;;;;;;;;;6845617;28;20130;-83
2021/05/12 14:10:40;;;;;;;2.72;0.90;;;;;;;;;;6825980;28;20043;-84
2021/05/12 14:14:14;;;;;;;2.15;0.90;;;;;;;;;;6815681;29;20024;-80
2021/05/12 14:17:35;;;;;;;1.52;0.80;;;;;;;;;;6826772;28;20117;-80
2021/05/12 14:20:55;;;;;;;2.70;1.10;;;;;;;;;;6836249;28;20035;-80
2021/05/12 14:24:16;;;;;;;3.55;0.90;;;;;;;;;;6835881;29;20884;-80
2021/05/12 14:27:36;;;;;;;1.55;0.95;;;;;;;;;;6837378;29;20055;-80
2021/05/12 14:30:57;;;;;;;3.63;0.95;;;;;;;;;;6835514;28;20035;-81
2021/05/12 14:34:17;;;;;;;5.38;0.88;;;;;;;;;;6835609;28;20090;-80
2021/05/12 14:37:37;;;;;;;3.58;1.00;;;;;;;;;;6827481;28;20538;-80
2021/05/12 14:40:58;;;;;;;1.88;1.15;;;;;;;;;;6834818;28;20038;-80
2021/05/12 14:44:18;;;;;;;1.45;0.82;;;;;;;;;;6826563;28;20086;-81
2021/05/12 14:47:39;;;;;;;4.07;0.80;;;;;;;;;;6827413;29;20042;-80
2021/05/12 14:51:02;;;;;;;4.00;0.90;;;;;;;;;;6835732;29;20102;-79
2021/05/12 14:54:26;;;;;;;0.95;0.85;;;;;;;;;;6836203;28;20038;-80
2021/05/12 15:02:04;;;;;;;1.88;1.00;;;;;;;;;;6835169;29;20035;-80
2021/05/12 15:05:30;;;;;;;3.20;0.88;;;;;;;;;;6821091;28;20556;-79
2021/05/12 15:08:51;;;;;;;4.72;1.10;;;;;;;;;;6829843;29;20054;-79
2021/05/12 15:12:11;;;;;;;4.43;0.88;;;;;;;;;;6823624;29;20126;-80
2021/05/12 15:15:32;;;;;;;1.48;0.90;;;;;;;;;;6842888;28;20040;-79
2021/05/12 15:18:53;;;;;;;1.48;0.80;;;;;;;;;;6818958;29;20114;-79
2021/05/12 15:22:14;;;;;;;1.73;0.82;;;;;;;;;;6824840;29;20039;-80
2021/05/12 15:25:35;;;;;;;2.05;0.70;;;;;;;;;;6837812;28;20529;-80
2021/05/12 15:28:55;;;;;;;2.95;0.85;;;;;;;;;;6833313;28;20031;-79
2021/05/12 15:32:15;;;;;;;1.73;0.85;;;;;;;;;;6839601;28;20122;-79
2021/05/12 15:35:36;;;;;;;1.75;0.60;;;;;;;;;;6829117;28;20031;-80
2021/05/12 15:38:57;;;;;;;0.68;0.65;;;;;;;;;;6837541;28;20051;-80
2021/05/12 15:42:18;;;;;;;1.08;0.77;;;;;;;;;;6822192;29;20462;-78
2021/05/12 15:45:39;;;;;;;1.73;0.75;;;;;;;;;;6823404;28;20114;-78
2021/05/12 15:49:00;;;;;;;4.93;0.98;;;;;;;;;;6817166;28;20082;-79
2021/05/12 15:52:21;;;;;;;0.90;0.73;;;;;;;;;;6831806;29;20023;-79
2021/05/12 15:55:42;;;;;;;1.67;0.80;;;;;;;;;;6828266;28;20039;-79
2021/05/12 15:59:03;;;;;;;3.05;0.77;;;;;;;;;;6823123;28;20035;-79
2021/05/12 16:02:24;;;;;;;4.20;0.80;;;;;;;;;;6839028;29;20095;-78
2021/05/12 16:05:44;;;;;;;1.38;0.82;;;;;;;;;;6833597;28;20036;-78
2021/05/12 16:09:05;;;;;;;0.70;0.70;;;;;;;;;;6833209;29;20172;-78
2021/05/12 16:12:26;;;;;;;4.90;1.05;;;;;;;;;;6836570;29;20151;-78
2021/05/12 16:16:10;;;;;;;3.78;1.00;;;;;;;;;;6827601;28;20050;-79
2021/05/12 16:19:30;;;;;;;6.63;1.20;;;;;;;;;;6837798;28;20038;-78
2021/05/12 16:22:51;;;;;;;7.05;1.20;;;;;;;;;;6831820;28;20062;-78
2021/05/12 16:26:12;;;;;;;2.65;1.20;;;;;;;;;;6836829;28;20035;-78
2021/05/12 16:29:33;;;;;;;7.40;1.40;;;;;;;;;;6824614;28;20058;-78
2021/05/12 16:32:54;;;;;;;4.97;1.10;;;;;;;;;;6828599;28;20035;-78
2021/05/12 16:36:15;;;;;;;4.18;1.30;;;;;;;;;;6831667;28;20035;-78
2021/05/12 16:39:35;;;;;;;4.07;1.00;;;;;;;;;;6816307;29;20039;-78
2021/05/12 16:42:56;;;;;;;2.72;0.82;;;;;;;;;;6839147;28;20041;-80
2021/05/12 16:46:16;;;;;;;4.75;1.00;;;;;;;;;;6820677;29;20027;-81
2021/05/12 16:49:39;;;;;;;5.22;0.80;;;;;;;;;;6822462;28;20063;-81
2021/05/12 16:53:00;;;;;;;4.40;0.98;;;;;;;;;;6832106;28;20039;-81
2021/05/12 16:56:21;;;;;;;4.55;1.10;;;;;;;;;;6835312;28;20054;-80
2021/05/12 16:59:41;;;;;;;8.57;1.20;;;;;;;;;;6834836;28;20039;-80
2021/05/12 17:03:02;;;;;;;8.20;1.23;;;;;;;;;;6839400;28;20531;-81
2021/05/12 17:06:26;;;;;;;6.40;1.25;;;;;;;;;;6834947;28;20039;-83
2021/05/12 17:09:46;;;;;;;3.72;1.00;;;;;;;;;;6839379;28;20038;-82
2021/05/12 17:13:07;;;;;;;4.60;1.20;;;;;;;;;;6840294;28;20110;-85
2021/05/12 17:16:27;;;;;;;2.90;1.20;;;;;;;;;;6826814;28;20038;-81
2021/05/12 17:19:47;;;;;;;8.23;1.73;;;;;;;;;;6828584;28;20035;-80
2021/05/12 17:23:08;;;;;;;4.70;1.60;;;;;;;;;;6831066;28;20122;-81
2021/05/12 17:26:28;;;;;;;5.22;1.60;;;;;;;;;;6822925;28;20035;-83
2021/05/12 17:29:49;;;;;;;4.53;1.67;;;;;;;;;;6826765;28;20114;-81
2021/05/12 17:33:09;;;;;;;7.57;2.10;;;;;;;;;;6822007;28;20366;-81
2021/05/12 17:36:30;;;;;;;7.78;2.45;;;;;;;;;;6825781;28;20042;-81
2021/05/12 17:39:50;;;;;;;4.25;1.98;;;;;;;;;;6823987;28;20035;-81
2021/05/12 17:43:10;;;;;;;3.80;2.47;;;;;;;;;;6825368;28;20035;-81
2021/05/12 17:46:31;;;;;;;4.40;2.00;;;;;;;;;;6827382;28;20593;-81
2021/05/12 17:49:51;;;;;;;2.95;2.08;;;;;;;;;;6837526;28;20060;-81
2021/05/12 17:53:13;;;;;;;3.58;2.40;;;;;;;;;;6829401;28;20539;-81
2021/05/12 17:56:34;;;;;;;4.32;2.17;;;;;;;;;;6836795;28;20042;-81
2021/05/12 17:59:54;;;;;;;4.72;2.22;;;;;;;;;;6835172;29;20126;-81
2021/05/12 18:03:14;;;;;;;5.65;2.30;;;;;;;;;;6837653;28;20117;-81
2021/05/12 18:06:37;;;;;;;7.43;2.13;;;;;;;;;;6833617;28;20054;-83
2021/05/12 18:09:57;;;;;;;5.70;2.20;;;;;;;;;;6826838;28;20367;-81
2021/05/12 18:20:17;;;;;;;4.75;2.17;;;;;;;;;;6836105;28;20028;-82
2021/05/12 18:23:38;;;;;;;4.60;1.95;;;;;;;;;;6834036;28;20102;-82
2021/05/12 18:26:59;;;;;;;4.68;1.80;;;;;;;;;;6837579;28;20461;-80
2021/05/12 18:30:20;;;;;;;13.13;2.15;;;;;;;;;;6833764;28;20053;-81
2021/05/12 18:33:41;;;;;;;6.88;2.50;;;;;;;;;;6850820;28;20047;-80
2021/05/12 18:37:08;;;;;;;12.93;2.45;;;;;;;;;;6843264;28;20178;-81
2021/05/12 18:40:29;;;;;;;5.75;2.00;;;;;;;;;;6836982;28;20046;-81
2021/05/12 18:43:49;;;;;;;4.88;1.70;;;;;;;;;;6838761;28;20062;-80
2021/05/12 18:47:09;;;;;;;5.28;2.10;;;;;;;;;;6857401;28;20497;-78
2021/05/12 18:50:30;;;;;;;3.83;1.60;;;;;;;;;;6831832;29;20062;-80
2021/05/12 18:53:50;;;;;;;3.67;1.73;;;;;;;;;;6827963;28;20673;-82
2021/05/12 18:57:11;;;;;;;4.20;1.58;;;;;;;;;;6820450;28;20063;-79
2021/05/12 19:00:32;;;;;;;7.70;1.75;;;;;;;;;;6824303;28;20111;-81
2021/05/12 19:03:52;;;;;;;5.57;2.00;;;;;;;;;;6838495;28;20050;-79
2021/05/12 19:07:33;;;;;;;4.35;1.50;;;;;;;;;;6833793;28;20063;-79
2021/05/12 19:10:58;;;;;;;6.68;1.65;;;;;;;;;;6829923;28;20043;-79
2021/05/12 19:14:25;;;;;;;5.85;1.50;;;;;;;;;;6833586;28;20024;-83
2021/05/12 19:17:50;;;;;;;14.48;1.60;;;;;;;;;;6832804;28;20098;-84
2021/05/12 19:42:17;;;;;;;;;;;;;;;;;;6832869;28;20063;-83
2021/05/12 19:45:38;;;;;;;7.37;1.70;;;;;;;;;;6835755;28;19987;-83
2021/05/12 19:48:58;;;;;;;5.18;1.20;;;;;;;;;;6824890;28;20078;-86
2021/05/12 19:52:20;;;;;;;3.40;1.50;;;;;;;;;;6837701;28;20066;-85
2021/05/12 19:55:57;;;;;;;7.45;1.40;;;;;;;;;;6843354;28;20057;-85
2021/05/12 19:59:18;;;;;;;2.83;1.08;;;;;;;;;;6827068;28;20068;-85
2021/05/12 20:02:39;;;;;;;5.57;1.65;;;;;;;;;;6822117;28;20066;-86
2021/05/12 20:16:24;;;;;;;3.58;1.20;;;;;;;;;;6827767;28;20035;-82
2021/05/12 20:19:45;;;;;;;6.70;1.50;;;;;;;;;;6832141;28;20459;-83
2021/05/12 20:23:06;;;;;;;11.52;1.55;;;;;;;;;;6838657;28;20060;-80
2021/05/12 20:26:26;;;;;;;3.88;1.50;;;;;;;;;;6839179;28;20039;-82
2021/05/12 20:29:47;;;;;;;6.13;1.65;;;;;;;;;;6839482;28;20058;-81
2021/05/12 20:36:48;;;;;;;6.03;1.70;;;;;;;;;;6829376;28;20063;-81
2021/05/12 20:40:09;;;;;;;11.68;1.73;;;;;;;;;;6821767;29;20032;-82
2021/05/12 20:43:30;;;;;;;3.78;1.60;;;;;;;;;;6817393;28;20045;-82
2021/05/12 20:46:50;;;;;;;5.90;1.73;;;;;;;;;;6829460;28;20032;-82
2021/05/12 20:50:11;;;;;;;4.70;1.58;;;;;;;;;;6814893;29;20032;-82
2021/05/12 20:53:32;;;;;;;9.20;2.17;;;;;;;;;;6815857;28;20060;-81
2021/05/12 20:56:53;;;;;;;3.63;1.50;;;;;;;;;;6812774;28;20127;-81
2021/05/12 21:00:14;;;;;;;7.90;1.92;;;;;;;;;;6819680;28;20031;-82
2021/05/12 21:03:34;;;;;;;6.10;1.90;;;;;;;;;;6841801;28;20035;-80
2021/05/12 21:06:55;;;;;;;7.30;2.28;;;;;;;;;;6838729;28;20142;-81
2021/05/12 21:10:15;;;;;;;4.35;1.90;;;;;;;;;;6838622;29;20059;-81
2021/05/12 21:13:36;;;;;;;7.75;1.75;;;;;;;;;;6827866;28;20445;-82
2021/05/12 21:16:56;;;;;;;7.28;2.00;;;;;;;;;;6846155;28;20114;-80
2021/05/12 21:20:21;;;;;;;3.42;1.30;;;;;;;;;;6843089;28;20054;-80
2021/05/12 21:23:44;;;;;;;5.85;1.52;;;;;;;;;;6839826;28;20098;-80
2021/05/12 21:27:05;;;;;;;4.43;1.50;;;;;;;;;;6839560;28;20039;-84
2021/05/12 21:30:30;;;;;;;1.55;1.40;;;;;;;;;;6836690;28;20047;-83
2021/05/12 21:33:51;;;;;;;2.92;1.60;;;;;;;;;;6832342;28;20474;-82
2021/05/12 21:37:11;;;;;;;3.08;1.42;;;;;;;;;;6833735;28;20039;-83
2021/05/12 21:40:32;;;;;;;4.75;1.25;;;;;;;;;;6835275;28;20442;-81
2021/05/12 21:43:52;;;;;;;1.30;1.00;;;;;;;;;;6837962;28;20063;-84
2021/05/12 21:47:13;;;;;;;11.27;1.55;;;;;;;;;;6831060;28;20031;-83
2021/05/12 21:50:36;;;;;;;9.63;1.70;;;;;;;;;;6834112;28;20091;-83
2021/05/12 21:53:57;;;;;;;3.85;1.50;;;;;;;;;;6827800;29;20470;-84
2021/05/12 21:57:17;;;;;;;8.88;1.48;;;;;;;;;;6837204;28;20089;-84
2021/05/12 22:00:48;;;;;;;15.23;1.33;;;;;;;;;;6837683;28;20035;-84
2021/05/12 22:04:09;;;;;;;3.75;1.27;;;;;;;;;;6837334;28;20023;-88
2021/05/12 22:08:05;;;;;;;9.65;1.20;;;;;;;;;;6838858;28;20027;-90
2021/05/12 22:32:52;;;;;;;2.00;1.30;;;;;;;;;;6836413;29;20043;-85
2021/05/12 22:36:13;;;;;;;2.70;1.13;;;;;;;;;;6836304;28;20046;-86
2021/05/12 22:39:33;;;;;;;6.05;1.42;;;;;;;;;;6842923;28;20039;-85
2021/05/12 22:42:54;;;;;;;7.03;1.13;;;;;;;;;;6836203;29;20042;-85
2021/05/12 22:46:14;;;;;;;5.57;1.20;;;;;;;;;;6836169;29;20075;-85
2021/05/12 22:49:35;;;;;;;4.18;1.02;;;;;;;;;;6836174;28;20062;-85
2021/05/12 22:53:00;;;;;;;1.63;1.00;;;;;;;;;;6836107;28;20023;-86
2021/05/12 23:00:06;;;;;;;2.05;1.20;;;;;;;;;;6817047;29;20453;-83
2021/05/12 23:03:27;;;;;;;5.65;1.38;;;;;;;;;;6835678;29;20433;-83
2021/05/12 23:06:48;;;;;;;4.78;1.40;;;;;;;;;;6835419;28;20458;-83
2021/05/12 23:10:10;;;;;;;4.95;1.17;;;;;;;;;;6840962;28;20035;-83
2021/05/12 23:13:30;;;;;;;6.85;1.52;;;;;;;;;;6834717;29;20020;-83
2021/05/12 23:16:51;;;;;;;4.93;1.40;;;;;;;;;;6837822;28;20054;-83
2021/05/12 23:20:12;;;;;;;7.45;1.67;;;;;;;;;;6843409;28;20462;-83
2021/05/12 23:23:40;;;;;;;2.42;1.15;;;;;;;;;;6835913;28;20070;-83
2021/05/12 23:27:01;;;;;;;4.50;1.20;;;;;;;;;;6835924;28;20105;-82
2021/05/12 23:30:21;;;;;;;6.55;1.30;;;;;;;;;;6836184;29;20062;-82
2021/05/12 23:33:43;;;;;;;4.47;1.33;;;;;;;;;;6834927;28;20063;-82
2021/05/12 23:37:04;;;;;;;4.18;1.17;;;;;;;;;;6839082;28;20496;-82
2021/05/12 23:40:25;;;;;;;3.25;1.20;;;;;;;;;;6844623;28;20031;-82
2021/05/12 23:43:46;;;;;;;10.27;1.70;;;;;;;;;;6833438;28;20032;-82
2021/05/12 23:47:07;;;;;;;6.40;1.60;;;;;;;;;;6841337;28;20094;-82
2021/05/12 23:50:27;;;;;;;5.05;1.45;;;;;;;;;;6844016;28;20373;-82
2021/05/12 23:53:47;;;;;;;3.45;1.42;;;;;;;;;;6840648;28;20110;-83
2021/05/12 23:57:08;;;;;;;5.85;1.27;;;;;;;;;;6844229;28;20055;-82
